sensor_id;sensor_type;location;lat;lon;timestamp;temperature;humidity
54485;DHT22;45006;56.958;24.166;2023-02-15T00:01:36;22.70;64.50
54485;DHT22;45006;56.958;24.166;2023-02-15T00:04:04;22.70;64.50
54485;DHT22;45006;56.958;24.166;2023-02-15T00:06:31;22.70;64.40
54485;DHT22;45006;56.958;24.166;2023-02-15T00:09:00;22.80;64.50
54485;DHT22;45006;56.958;24.166;2023-02-15T00:11:29;22.70;64.70
54485;DHT22;45006;56.958;24.166;2023-02-15T00:14:21;22.70;64.70
54485;DHT22;45006;56.958;24.166;2023-02-15T00:16:50;22.70;64.70
54485;DHT22;45006;56.958;24.166;2023-02-15T00:19:20;22.80;64.90
54485;DHT22;45006;56.958;24.166;2023-02-15T00:21:48;22.80;64.90
54485;DHT22;45006;56.958;24.166;2023-02-15T00:24:17;22.80;64.90
54485;DHT22;45006;56.958;24.166;2023-02-15T00:26:45;22.80;64.90
54485;DHT22;45006;56.958;24.166;2023-02-15T00:29:13;22.80;65.00
54485;DHT22;45006;56.958;24.166;2023-02-15T00:31:41;22.80;65.10
54485;DHT22;45006;56.958;24.166;2023-02-15T00:34:24;22.80;64.90
54485;DHT22;45006;56.958;24.166;2023-02-15T00:36:51;22.80;64.40
54485;DHT22;45006;56.958;24.166;2023-02-15T00:39:19;22.80;65.20
54485;DHT22;45006;56.958;24.166;2023-02-15T00:41:47;22.80;65.50
54485;DHT22;45006;56.958;24.166;2023-02-15T00:44:14;22.80;65.40
54485;DHT22;45006;56.958;24.166;2023-02-15T00:46:41;22.80;65.50
54485;DHT22;45006;56.958;24.166;2023-02-15T00:49:09;22.80;65.40
54485;DHT22;45006;56.958;24.166;2023-02-15T00:51:36;22.80;65.80
54485;DHT22;45006;56.958;24.166;2023-02-15T00:54:03;22.80;65.30
54485;DHT22;45006;56.958;24.166;2023-02-15T00:56:30;22.80;66.00
54485;DHT22;45006;56.958;24.166;2023-02-15T00:58:56;22.80;65.20
54485;DHT22;45006;56.958;24.166;2023-02-15T01:01:23;22.80;64.90
54485;DHT22;45006;56.958;24.166;2023-02-15T01:03:50;22.80;65.00
54485;DHT22;45006;56.958;24.166;2023-02-15T01:06:18;22.80;65.10
54485;DHT22;45006;56.958;24.166;2023-02-15T01:08:45;22.80;64.60
54485;DHT22;45006;56.958;24.166;2023-02-15T01:11:16;22.80;64.70
54485;DHT22;45006;56.958;24.166;2023-02-15T01:13:56;22.80;64.50
54485;DHT22;45006;56.958;24.166;2023-02-15T01:16:26;22.80;64.50
54485;DHT22;45006;56.958;24.166;2023-02-15T01:18:54;22.80;64.70
54485;DHT22;45006;56.958;24.166;2023-02-15T01:21:25;22.80;64.50
54485;DHT22;45006;56.958;24.166;2023-02-15T01:23:52;22.80;64.30
54485;DHT22;45006;56.958;24.166;2023-02-15T01:26:19;22.80;64.50
54485;DHT22;45006;56.958;24.166;2023-02-15T01:28:46;22.80;64.30
54485;DHT22;45006;56.958;24.166;2023-02-15T01:31:15;22.80;64.10
54485;DHT22;45006;56.958;24.166;2023-02-15T01:33:43;22.80;64.50
54485;DHT22;45006;56.958;24.166;2023-02-15T01:36:10;22.80;64.50
54485;DHT22;45006;56.958;24.166;2023-02-15T01:38:37;22.80;64.40
54485;DHT22;45006;56.958;24.166;2023-02-15T01:41:06;22.80;64.50
54485;DHT22;45006;56.958;24.166;2023-02-15T01:43:54;22.80;64.20
54485;DHT22;45006;56.958;24.166;2023-02-15T01:46:42;22.80;63.80
54485;DHT22;45006;56.958;24.166;2023-02-15T01:49:18;22.80;64.40
54485;DHT22;45006;56.958;24.166;2023-02-15T01:51:47;22.80;64.40
54485;DHT22;45006;56.958;24.166;2023-02-15T01:54:29;22.80;63.80
54485;DHT22;45006;56.958;24.166;2023-02-15T01:57:01;22.80;64.30
54485;DHT22;45006;56.958;24.166;2023-02-15T01:59:29;22.80;63.80
54485;DHT22;45006;56.958;24.166;2023-02-15T02:01:59;22.80;63.80
54485;DHT22;45006;56.958;24.166;2023-02-15T02:07:04;22.80;63.90
54485;DHT22;45006;56.958;24.166;2023-02-15T02:09:32;22.80;64.50
54485;DHT22;45006;56.958;24.166;2023-02-15T02:11:59;22.80;64.50
54485;DHT22;45006;56.958;24.166;2023-02-15T02:14:27;22.80;64.50
54485;DHT22;45006;56.958;24.166;2023-02-15T02:36:09;22.80;64.50
54485;DHT22;45006;56.958;24.166;2023-02-15T02:41:18;22.80;64.50
54485;DHT22;45006;56.958;24.166;2023-02-15T02:47:08;22.80;64.70
54485;DHT22;45006;56.958;24.166;2023-02-15T02:49:41;22.80;64.50
54485;DHT22;45006;56.958;24.166;2023-02-15T02:52:35;22.80;64.50
54485;DHT22;45006;56.958;24.166;2023-02-15T03:01:01;22.80;64.00
54485;DHT22;45006;56.958;24.166;2023-02-15T03:06:06;22.80;64.10
54485;DHT22;45006;56.958;24.166;2023-02-15T03:08:42;22.80;63.80
54485;DHT22;45006;56.958;24.166;2023-02-15T03:11:11;22.80;64.30
54485;DHT22;45006;56.958;24.166;2023-02-15T03:13:39;22.80;64.50
54485;DHT22;45006;56.958;24.166;2023-02-15T03:16:08;22.80;64.50
54485;DHT22;45006;56.958;24.166;2023-02-15T03:19:42;22.80;63.90
54485;DHT22;45006;56.958;24.166;2023-02-15T03:22:00;22.80;64.20
54485;DHT22;45006;56.958;24.166;2023-02-15T03:24:44;22.80;64.10
54485;DHT22;45006;56.958;24.166;2023-02-15T03:27:20;22.80;64.00
54485;DHT22;45006;56.958;24.166;2023-02-15T03:29:58;22.80;64.10
54485;DHT22;45006;56.958;24.166;2023-02-15T03:32:28;22.80;63.60
54485;DHT22;45006;56.958;24.166;2023-02-15T03:34:56;22.80;63.80
54485;DHT22;45006;56.958;24.166;2023-02-15T03:45:56;22.80;63.40
54485;DHT22;45006;56.958;24.166;2023-02-15T03:48:38;22.80;63.70
54485;DHT22;45006;56.958;24.166;2023-02-15T03:51:10;22.80;63.90
54485;DHT22;45006;56.958;24.166;2023-02-15T03:53:57;22.80;64.00
54485;DHT22;45006;56.958;24.166;2023-02-15T03:56:25;22.80;64.00
54485;DHT22;45006;56.958;24.166;2023-02-15T03:58:52;22.80;63.50
54485;DHT22;45006;56.958;24.166;2023-02-15T04:07:01;22.80;63.40
54485;DHT22;45006;56.958;24.166;2023-02-15T04:09:28;22.80;63.50
54485;DHT22;45006;56.958;24.166;2023-02-15T04:12:13;22.80;63.60
54485;DHT22;45006;56.958;24.166;2023-02-15T04:14:40;22.80;63.20
54485;DHT22;45006;56.958;24.166;2023-02-15T04:17:26;22.80;63.00
54485;DHT22;45006;56.958;24.166;2023-02-15T04:19:53;22.80;63.40
54485;DHT22;45006;56.958;24.166;2023-02-15T04:22:38;22.80;63.30
54485;DHT22;45006;56.958;24.166;2023-02-15T04:25:24;22.80;63.20
54485;DHT22;45006;56.958;24.166;2023-02-15T04:27:54;22.80;62.90
54485;DHT22;45006;56.958;24.166;2023-02-15T04:30:24;22.80;63.50
54485;DHT22;45006;56.958;24.166;2023-02-15T04:32:51;22.80;63.20
54485;DHT22;45006;56.958;24.166;2023-02-15T04:35:19;22.80;63.30
54485;DHT22;45006;56.958;24.166;2023-02-15T04:37:46;22.80;63.40
54485;DHT22;45006;56.958;24.166;2023-02-15T04:40:14;22.80;63.00
54485;DHT22;45006;56.958;24.166;2023-02-15T04:42:47;22.80;63.30
54485;DHT22;45006;56.958;24.166;2023-02-15T04:45:15;22.80;62.90
54485;DHT22;45006;56.958;24.166;2023-02-15T04:47:44;22.80;62.90
54485;DHT22;45006;56.958;24.166;2023-02-15T04:50:11;22.80;62.80
54485;DHT22;45006;56.958;24.166;2023-02-15T04:52:38;22.80;63.20
54485;DHT22;45006;56.958;24.166;2023-02-15T04:55:05;22.80;63.20
54485;DHT22;45006;56.958;24.166;2023-02-15T04:57:32;22.80;63.40
54485;DHT22;45006;56.958;24.166;2023-02-15T04:59:59;22.80;63.20
54485;DHT22;45006;56.958;24.166;2023-02-15T05:02:26;22.80;63.20
54485;DHT22;45006;56.958;24.166;2023-02-15T05:04:53;22.90;63.30
54485;DHT22;45006;56.958;24.166;2023-02-15T05:07:19;22.80;63.20
54485;DHT22;45006;56.958;24.166;2023-02-15T05:09:49;22.80;63.10
54485;DHT22;45006;56.958;24.166;2023-02-15T05:12:16;22.80;62.90
54485;DHT22;45006;56.958;24.166;2023-02-15T05:14:43;22.80;63.10
54485;DHT22;45006;56.958;24.166;2023-02-15T05:17:09;22.80;63.10
54485;DHT22;45006;56.958;24.166;2023-02-15T05:19:36;22.80;62.80
54485;DHT22;45006;56.958;24.166;2023-02-15T05:22:03;22.80;63.20
54485;DHT22;45006;56.958;24.166;2023-02-15T05:24:30;22.80;63.30
54485;DHT22;45006;56.958;24.166;2023-02-15T05:27:16;22.80;63.20
54485;DHT22;45006;56.958;24.166;2023-02-15T05:30:01;22.80;63.40
54485;DHT22;45006;56.958;24.166;2023-02-15T05:32:28;22.80;63.70
54485;DHT22;45006;56.958;24.166;2023-02-15T05:34:55;22.80;63.80
54485;DHT22;45006;56.958;24.166;2023-02-15T05:37:22;22.80;64.00
54485;DHT22;45006;56.958;24.166;2023-02-15T05:39:49;22.80;64.10
54485;DHT22;45006;56.958;24.166;2023-02-15T05:42:16;22.80;64.10
54485;DHT22;45006;56.958;24.166;2023-02-15T05:44:42;22.80;64.40
54485;DHT22;45006;56.958;24.166;2023-02-15T05:47:09;22.80;64.50
54485;DHT22;45006;56.958;24.166;2023-02-15T05:49:37;22.80;64.60
54485;DHT22;45006;56.958;24.166;2023-02-15T05:52:04;22.80;64.80
54485;DHT22;45006;56.958;24.166;2023-02-15T05:54:31;22.80;64.90
54485;DHT22;45006;56.958;24.166;2023-02-15T05:56:58;22.80;64.80
54485;DHT22;45006;56.958;24.166;2023-02-15T05:59:24;22.80;64.90
54485;DHT22;45006;56.958;24.166;2023-02-15T06:01:51;22.80;65.10
54485;DHT22;45006;56.958;24.166;2023-02-15T06:04:18;22.80;65.20
54485;DHT22;45006;56.958;24.166;2023-02-15T06:06:45;22.80;65.20
54485;DHT22;45006;56.958;24.166;2023-02-15T06:09:12;22.80;65.70
54485;DHT22;45006;56.958;24.166;2023-02-15T06:11:39;22.80;65.70
54485;DHT22;45006;56.958;24.166;2023-02-15T06:14:06;22.80;65.90
54485;DHT22;45006;56.958;24.166;2023-02-15T06:16:33;22.80;65.80
54485;DHT22;45006;56.958;24.166;2023-02-15T06:19:02;22.80;65.70
54485;DHT22;45006;56.958;24.166;2023-02-15T06:21:30;22.80;66.00
54485;DHT22;45006;56.958;24.166;2023-02-15T06:23:57;22.80;66.00
54485;DHT22;45006;56.958;24.166;2023-02-15T06:26:24;22.80;66.20
54485;DHT22;45006;56.958;24.166;2023-02-15T06:28:51;22.80;66.30
54485;DHT22;45006;56.958;24.166;2023-02-15T06:31:18;22.80;66.40
54485;DHT22;45006;56.958;24.166;2023-02-15T06:33:45;22.90;66.30
54485;DHT22;45006;56.958;24.166;2023-02-15T06:36:11;22.90;66.50
54485;DHT22;45006;56.958;24.166;2023-02-15T06:38:39;22.90;66.50
54485;DHT22;45006;56.958;24.166;2023-02-15T06:41:06;22.80;66.40
54485;DHT22;45006;56.958;24.166;2023-02-15T06:43:34;22.90;67.00
54485;DHT22;45006;56.958;24.166;2023-02-15T06:46:01;22.90;67.20
54485;DHT22;45006;56.958;24.166;2023-02-15T06:48:30;22.90;67.20
54485;DHT22;45006;56.958;24.166;2023-02-15T06:50:57;22.90;67.30
54485;DHT22;45006;56.958;24.166;2023-02-15T06:53:24;22.90;67.30
54485;DHT22;45006;56.958;24.166;2023-02-15T06:55:51;22.90;67.30
54485;DHT22;45006;56.958;24.166;2023-02-15T06:58:19;22.90;67.30
54485;DHT22;45006;56.958;24.166;2023-02-15T07:00:46;22.90;67.40
54485;DHT22;45006;56.958;24.166;2023-02-15T07:03:13;22.90;67.40
54485;DHT22;45006;56.958;24.166;2023-02-15T07:05:41;22.90;67.50
54485;DHT22;45006;56.958;24.166;2023-02-15T07:08:08;22.90;67.40
54485;DHT22;45006;56.958;24.166;2023-02-15T07:10:34;22.90;67.40
54485;DHT22;45006;56.958;24.166;2023-02-15T07:13:01;22.90;67.40
54485;DHT22;45006;56.958;24.166;2023-02-15T07:15:28;22.90;67.40
54485;DHT22;45006;56.958;24.166;2023-02-15T07:17:57;22.90;67.50
54485;DHT22;45006;56.958;24.166;2023-02-15T07:20:25;22.90;67.60
54485;DHT22;45006;56.958;24.166;2023-02-15T07:22:51;22.90;67.60
54485;DHT22;45006;56.958;24.166;2023-02-15T07:25:18;22.90;67.70
54485;DHT22;45006;56.958;24.166;2023-02-15T07:27:45;22.90;67.70
54485;DHT22;45006;56.958;24.166;2023-02-15T07:30:14;22.90;67.80
54485;DHT22;45006;56.958;24.166;2023-02-15T07:32:42;22.90;67.60
54485;DHT22;45006;56.958;24.166;2023-02-15T07:35:31;22.90;68.00
54485;DHT22;45006;56.958;24.166;2023-02-15T07:37:58;22.90;68.00
54485;DHT22;45006;56.958;24.166;2023-02-15T07:40:25;22.90;68.00
54485;DHT22;45006;56.958;24.166;2023-02-15T07:42:52;22.90;68.00
54485;DHT22;45006;56.958;24.166;2023-02-15T07:45:22;22.90;68.00
54485;DHT22;45006;56.958;24.166;2023-02-15T07:47:49;22.90;68.00
54485;DHT22;45006;56.958;24.166;2023-02-15T07:50:16;22.90;68.20
54485;DHT22;45006;56.958;24.166;2023-02-15T07:52:43;22.90;68.20
54485;DHT22;45006;56.958;24.166;2023-02-15T07:55:10;22.90;68.20
54485;DHT22;45006;56.958;24.166;2023-02-15T07:57:47;22.90;68.10
54485;DHT22;45006;56.958;24.166;2023-02-15T08:00:16;22.90;68.10
54485;DHT22;45006;56.958;24.166;2023-02-15T08:02:50;22.90;68.20
54485;DHT22;45006;56.958;24.166;2023-02-15T08:05:38;22.90;68.30
54485;DHT22;45006;56.958;24.166;2023-02-15T08:08:05;22.90;68.40
54485;DHT22;45006;56.958;24.166;2023-02-15T08:10:33;22.90;68.70
54485;DHT22;45006;56.958;24.166;2023-02-15T08:13:18;22.90;68.70
54485;DHT22;45006;56.958;24.166;2023-02-15T08:15:51;22.90;68.90
54485;DHT22;45006;56.958;24.166;2023-02-15T08:18:18;22.90;69.10
54485;DHT22;45006;56.958;24.166;2023-02-15T08:20:51;22.90;69.30
54485;DHT22;45006;56.958;24.166;2023-02-15T08:23:17;22.80;67.10
54485;DHT22;45006;56.958;24.166;2023-02-15T08:25:44;22.80;66.20
54485;DHT22;45006;56.958;24.166;2023-02-15T08:28:11;22.80;64.70
54485;DHT22;45006;56.958;24.166;2023-02-15T08:30:38;22.80;62.30
54485;DHT22;45006;56.958;24.166;2023-02-15T08:33:05;22.80;63.40
54485;DHT22;45006;56.958;24.166;2023-02-15T08:35:33;22.80;64.50
54485;DHT22;45006;56.958;24.166;2023-02-15T08:38:00;22.80;63.10
54485;DHT22;45006;56.958;24.166;2023-02-15T08:40:27;22.80;62.40
54485;DHT22;45006;56.958;24.166;2023-02-15T08:42:54;22.80;62.30
54485;DHT22;45006;56.958;24.166;2023-02-15T08:45:20;22.80;62.30
54485;DHT22;45006;56.958;24.166;2023-02-15T08:47:51;22.80;62.20
54485;DHT22;45006;56.958;24.166;2023-02-15T08:50:19;22.80;62.30
54485;DHT22;45006;56.958;24.166;2023-02-15T08:52:46;22.80;62.00
54485;DHT22;45006;56.958;24.166;2023-02-15T08:55:12;22.80;62.00
54485;DHT22;45006;56.958;24.166;2023-02-15T08:57:40;22.80;61.70
54485;DHT22;45006;56.958;24.166;2023-02-15T09:00:11;22.80;61.60
54485;DHT22;45006;56.958;24.166;2023-02-15T09:02:38;22.80;61.70
54485;DHT22;45006;56.958;24.166;2023-02-15T09:05:05;22.80;61.50
54485;DHT22;45006;56.958;24.166;2023-02-15T09:07:32;22.80;62.10
54485;DHT22;45006;56.958;24.166;2023-02-15T09:09:59;22.80;61.80
54485;DHT22;45006;56.958;24.166;2023-02-15T09:12:26;22.80;61.70
54485;DHT22;45006;56.958;24.166;2023-02-15T09:14:53;22.80;61.20
54485;DHT22;45006;56.958;24.166;2023-02-15T09:17:20;22.80;61.10
54485;DHT22;45006;56.958;24.166;2023-02-15T09:19:48;22.80;61.00
54485;DHT22;45006;56.958;24.166;2023-02-15T09:22:15;22.80;61.20
54485;DHT22;45006;56.958;24.166;2023-02-15T09:24:42;22.70;61.60
54485;DHT22;45006;56.958;24.166;2023-02-15T09:27:09;22.70;61.90
54485;DHT22;45006;56.958;24.166;2023-02-15T09:29:36;22.70;61.30
54485;DHT22;45006;56.958;24.166;2023-02-15T09:32:04;22.70;61.20
54485;DHT22;45006;56.958;24.166;2023-02-15T09:34:33;22.70;61.70
54485;DHT22;45006;56.958;24.166;2023-02-15T09:37:00;22.70;61.70
54485;DHT22;45006;56.958;24.166;2023-02-15T09:39:29;22.70;61.10
54485;DHT22;45006;56.958;24.166;2023-02-15T09:45:04;22.70;60.70
54485;DHT22;45006;56.958;24.166;2023-02-15T10:05:03;22.70;60.80
54485;DHT22;45006;56.958;24.166;2023-02-15T10:12:54;22.70;60.80
54485;DHT22;45006;56.958;24.166;2023-02-15T10:15:24;22.70;59.80
54485;DHT22;45006;56.958;24.166;2023-02-15T10:18:01;22.70;59.60
54485;DHT22;45006;56.958;24.166;2023-02-15T10:28:46;22.60;59.80
54485;DHT22;45006;56.958;24.166;2023-02-15T10:31:33;22.70;59.80
54485;DHT22;45006;56.958;24.166;2023-02-15T10:49:15;22.70;60.30
54485;DHT22;45006;56.958;24.166;2023-02-15T10:54:36;22.60;60.30
54485;DHT22;45006;56.958;24.166;2023-02-15T11:07:56;22.60;58.50
54485;DHT22;45006;56.958;24.166;2023-02-15T11:13:11;22.60;57.00
54485;DHT22;45006;56.958;24.166;2023-02-15T11:18:32;22.60;56.80
54485;DHT22;45006;56.958;24.166;2023-02-15T11:23:47;22.60;57.30
54485;DHT22;45006;56.958;24.166;2023-02-15T11:26:28;22.60;57.90
54485;DHT22;45006;56.958;24.166;2023-02-15T11:29:06;22.60;58.30
54485;DHT22;45006;56.958;24.166;2023-02-15T11:31:46;22.60;57.90
54485;DHT22;45006;56.958;24.166;2023-02-15T11:36:54;22.60;58.30
54485;DHT22;45006;56.958;24.166;2023-02-15T11:39:23;22.60;58.30
54485;DHT22;45006;56.958;24.166;2023-02-15T11:41:56;22.60;58.30
54485;DHT22;45006;56.958;24.166;2023-02-15T11:44:37;22.60;59.10
54485;DHT22;45006;56.958;24.166;2023-02-15T11:47:10;22.60;58.50
54485;DHT22;45006;56.958;24.166;2023-02-15T11:49:39;22.60;58.60
54485;DHT22;45006;56.958;24.166;2023-02-15T11:52:10;22.60;58.60
54485;DHT22;45006;56.958;24.166;2023-02-15T11:54:46;22.60;58.80
54485;DHT22;45006;56.958;24.166;2023-02-15T11:57:28;22.60;58.80
54485;DHT22;45006;56.958;24.166;2023-02-15T12:02:42;22.60;58.90
54485;DHT22;45006;56.958;24.166;2023-02-15T12:05:16;22.60;58.90
54485;DHT22;45006;56.958;24.166;2023-02-15T12:07:57;22.60;58.90
54485;DHT22;45006;56.958;24.166;2023-02-15T12:10:31;22.60;58.90
54485;DHT22;45006;56.958;24.166;2023-02-15T12:13:15;22.60;58.80
54485;DHT22;45006;56.958;24.166;2023-02-15T12:15:45;22.60;59.10
54485;DHT22;45006;56.958;24.166;2023-02-15T12:21:11;22.60;58.90
54485;DHT22;45006;56.958;24.166;2023-02-15T12:24:02;22.60;59.00
54485;DHT22;45006;56.958;24.166;2023-02-15T12:26:34;22.60;59.10
54485;DHT22;45006;56.958;24.166;2023-02-15T12:29:12;22.60;58.90
54485;DHT22;45006;56.958;24.166;2023-02-15T12:31:43;22.60;58.60
54485;DHT22;45006;56.958;24.166;2023-02-15T12:36:54;22.60;59.00
54485;DHT22;45006;56.958;24.166;2023-02-15T12:39:29;22.60;58.90
54485;DHT22;45006;56.958;24.166;2023-02-15T12:44:26;22.60;59.10
54485;DHT22;45006;56.958;24.166;2023-02-15T12:47:40;22.60;59.00
54485;DHT22;45006;56.958;24.166;2023-02-15T12:50:21;22.60;59.10
54485;DHT22;45006;56.958;24.166;2023-02-15T12:52:51;22.60;59.20
54485;DHT22;45006;56.958;24.166;2023-02-15T12:55:31;22.60;59.30
54485;DHT22;45006;56.958;24.166;2023-02-15T12:58:08;22.60;59.20
54485;DHT22;45006;56.958;24.166;2023-02-15T13:00:35;22.60;59.30
54485;DHT22;45006;56.958;24.166;2023-02-15T13:03:03;22.60;59.20
54485;DHT22;45006;56.958;24.166;2023-02-15T13:05:39;22.60;59.10
54485;DHT22;45006;56.958;24.166;2023-02-15T13:08:21;22.60;59.20
54485;DHT22;45006;56.958;24.166;2023-02-15T13:11:00;22.60;58.90
54485;DHT22;45006;56.958;24.166;2023-02-15T13:13:31;22.60;59.50
54485;DHT22;45006;56.958;24.166;2023-02-15T13:16:04;22.60;58.90
54485;DHT22;45006;56.958;24.166;2023-02-15T13:18:42;22.60;59.00
54485;DHT22;45006;56.958;24.166;2023-02-15T13:21:13;22.50;59.10
54485;DHT22;45006;56.958;24.166;2023-02-15T13:23:46;22.60;59.10
54485;DHT22;45006;56.958;24.166;2023-02-15T13:26:21;22.60;59.10
54485;DHT22;45006;56.958;24.166;2023-02-15T13:28:52;22.60;59.20
54485;DHT22;45006;56.958;24.166;2023-02-15T13:31:23;22.60;59.10
54485;DHT22;45006;56.958;24.166;2023-02-15T13:33:58;22.60;59.00
54485;DHT22;45006;56.958;24.166;2023-02-15T13:36:37;22.60;59.10
54485;DHT22;45006;56.958;24.166;2023-02-15T13:39:35;22.60;59.10
54485;DHT22;45006;56.958;24.166;2023-02-15T13:42:20;22.60;59.20
54485;DHT22;45006;56.958;24.166;2023-02-15T13:45:19;22.60;59.10
54485;DHT22;45006;56.958;24.166;2023-02-15T13:54:09;22.60;59.60
54485;DHT22;45006;56.958;24.166;2023-02-15T14:05:23;22.60;59.70
54485;DHT22;45006;56.958;24.166;2023-02-15T14:21:35;22.50;60.00
54485;DHT22;45006;56.958;24.166;2023-02-15T14:29:51;22.50;59.20
54485;DHT22;45006;56.958;24.166;2023-02-15T14:32:38;22.50;59.70
54485;DHT22;45006;56.958;24.166;2023-02-15T14:35:14;22.50;59.30
54485;DHT22;45006;56.958;24.166;2023-02-15T14:40:56;22.50;59.30
54485;DHT22;45006;56.958;24.166;2023-02-15T14:44:11;22.50;59.50
54485;DHT22;45006;56.958;24.166;2023-02-15T14:46:50;22.50;59.50
54485;DHT22;45006;56.958;24.166;2023-02-15T14:49:27;22.50;59.60
54485;DHT22;45006;56.958;24.166;2023-02-15T14:51:58;22.50;59.50
54485;DHT22;45006;56.958;24.166;2023-02-15T14:59:53;22.50;59.50
54485;DHT22;45006;56.958;24.166;2023-02-15T15:05:02;22.50;59.40
54485;DHT22;45006;56.958;24.166;2023-02-15T15:07:40;22.50;59.20
54485;DHT22;45006;56.958;24.166;2023-02-15T15:12:46;22.50;59.10
54485;DHT22;45006;56.958;24.166;2023-02-15T15:18:07;22.50;59.40
54485;DHT22;45006;56.958;24.166;2023-02-15T15:20:39;22.50;59.30
54485;DHT22;45006;56.958;24.166;2023-02-15T15:25:48;22.40;59.20
54485;DHT22;45006;56.958;24.166;2023-02-15T15:48:31;22.40;59.50
54485;DHT22;45006;56.958;24.166;2023-02-15T15:51:04;22.40;59.60
54485;DHT22;45006;56.958;24.166;2023-02-15T15:53:40;22.40;59.60
54485;DHT22;45006;56.958;24.166;2023-02-15T15:56:13;22.40;59.60
54485;DHT22;45006;56.958;24.166;2023-02-15T15:58:46;22.40;59.70
54485;DHT22;45006;56.958;24.166;2023-02-15T16:01:21;22.40;59.60
54485;DHT22;45006;56.958;24.166;2023-02-15T16:03:52;22.40;59.70
54485;DHT22;45006;56.958;24.166;2023-02-15T16:06:31;22.40;59.70
54485;DHT22;45006;56.958;24.166;2023-02-15T16:09:20;22.40;59.70
54485;DHT22;45006;56.958;24.166;2023-02-15T16:11:57;22.40;59.80
54485;DHT22;45006;56.958;24.166;2023-02-15T16:14:35;22.40;59.70
54485;DHT22;45006;56.958;24.166;2023-02-15T16:17:05;22.40;59.70
54485;DHT22;45006;56.958;24.166;2023-02-15T16:19:35;22.40;59.70
54485;DHT22;45006;56.958;24.166;2023-02-15T16:22:09;22.40;59.70
54485;DHT22;45006;56.958;24.166;2023-02-15T16:24:49;22.40;59.70
54485;DHT22;45006;56.958;24.166;2023-02-15T16:27:33;22.40;59.70
54485;DHT22;45006;56.958;24.166;2023-02-15T16:30:29;22.40;59.80
54485;DHT22;45006;56.958;24.166;2023-02-15T16:35:40;22.40;59.70
54485;DHT22;45006;56.958;24.166;2023-02-15T16:38:10;22.40;59.70
54485;DHT22;45006;56.958;24.166;2023-02-15T16:40:53;22.40;59.70
54485;DHT22;45006;56.958;24.166;2023-02-15T16:43:26;22.40;59.70
54485;DHT22;45006;56.958;24.166;2023-02-15T16:46:08;22.40;59.70
54485;DHT22;45006;56.958;24.166;2023-02-15T16:48:43;22.40;59.70
54485;DHT22;45006;56.958;24.166;2023-02-15T16:51:20;22.40;59.70
54485;DHT22;45006;56.958;24.166;2023-02-15T16:53:47;22.40;59.70
54485;DHT22;45006;56.958;24.166;2023-02-15T16:56:15;22.40;59.70
54485;DHT22;45006;56.958;24.166;2023-02-15T16:58:50;22.40;59.70
54485;DHT22;45006;56.958;24.166;2023-02-15T17:01:21;22.40;59.70
54485;DHT22;45006;56.958;24.166;2023-02-15T17:03:52;22.40;59.70
54485;DHT22;45006;56.958;24.166;2023-02-15T17:06:36;22.40;59.70
54485;DHT22;45006;56.958;24.166;2023-02-15T17:09:13;22.40;59.70
54485;DHT22;45006;56.958;24.166;2023-02-15T17:11:45;22.40;59.70
54485;DHT22;45006;56.958;24.166;2023-02-15T17:14:17;22.40;59.70
54485;DHT22;45006;56.958;24.166;2023-02-15T17:16:53;22.40;59.70
54485;DHT22;45006;56.958;24.166;2023-02-15T17:19:30;22.40;59.70
54485;DHT22;45006;56.958;24.166;2023-02-15T17:22:03;22.40;59.70
54485;DHT22;45006;56.958;24.166;2023-02-15T17:27:02;22.40;59.70
54485;DHT22;45006;56.958;24.166;2023-02-15T17:29:36;22.40;59.70
54485;DHT22;45006;56.958;24.166;2023-02-15T17:32:10;22.40;59.70
54485;DHT22;45006;56.958;24.166;2023-02-15T17:34:46;22.40;59.60
54485;DHT22;45006;56.958;24.166;2023-02-15T17:37:31;22.40;59.60
54485;DHT22;45006;56.958;24.166;2023-02-15T17:42:48;22.40;59.60
54485;DHT22;45006;56.958;24.166;2023-02-15T17:45:15;22.40;59.50
54485;DHT22;45006;56.958;24.166;2023-02-15T17:47:43;22.40;59.50
54485;DHT22;45006;56.958;24.166;2023-02-15T17:50:24;22.40;59.60
54485;DHT22;45006;56.958;24.166;2023-02-15T17:52:52;22.40;59.50
54485;DHT22;45006;56.958;24.166;2023-02-15T17:55:21;22.40;59.50
54485;DHT22;45006;56.958;24.166;2023-02-15T17:58:16;22.40;59.40
54485;DHT22;45006;56.958;24.166;2023-02-15T18:00:56;22.40;59.40
54485;DHT22;45006;56.958;24.166;2023-02-15T18:03:50;22.40;59.40
54485;DHT22;45006;56.958;24.166;2023-02-15T18:06:39;22.40;59.50
54485;DHT22;45006;56.958;24.166;2023-02-15T18:09:25;22.40;59.40
54485;DHT22;45006;56.958;24.166;2023-02-15T18:14:49;22.40;59.50
54485;DHT22;45006;56.958;24.166;2023-02-15T18:17:16;22.40;59.40
54485;DHT22;45006;56.958;24.166;2023-02-15T18:19:45;22.40;59.40
54485;DHT22;45006;56.958;24.166;2023-02-15T18:22:15;22.40;59.40
54485;DHT22;45006;56.958;24.166;2023-02-15T18:24:42;22.40;59.40
54485;DHT22;45006;56.958;24.166;2023-02-15T18:27:11;22.40;59.40
54485;DHT22;45006;56.958;24.166;2023-02-15T18:29:38;22.40;59.40
54485;DHT22;45006;56.958;24.166;2023-02-15T18:32:18;22.40;59.40
54485;DHT22;45006;56.958;24.166;2023-02-15T18:34:48;22.40;59.20
54485;DHT22;45006;56.958;24.166;2023-02-15T18:37:19;22.40;59.20
54485;DHT22;45006;56.958;24.166;2023-02-15T18:39:49;22.40;59.20
54485;DHT22;45006;56.958;24.166;2023-02-15T18:42:27;22.40;59.20
54485;DHT22;45006;56.958;24.166;2023-02-15T18:44:59;22.40;59.20
54485;DHT22;45006;56.958;24.166;2023-02-15T18:47:30;22.40;59.40
54485;DHT22;45006;56.958;24.166;2023-02-15T18:49:59;22.40;59.20
54485;DHT22;45006;56.958;24.166;2023-02-15T18:52:31;22.40;59.20
54485;DHT22;45006;56.958;24.166;2023-02-15T18:55:01;22.40;59.30
54485;DHT22;45006;56.958;24.166;2023-02-15T18:57:29;22.40;59.20
54485;DHT22;45006;56.958;24.166;2023-02-15T18:59:56;22.40;59.30
54485;DHT22;45006;56.958;24.166;2023-02-15T19:02:22;22.40;59.30
54485;DHT22;45006;56.958;24.166;2023-02-15T19:04:49;22.40;59.20
54485;DHT22;45006;56.958;24.166;2023-02-15T19:07:20;22.40;59.20
54485;DHT22;45006;56.958;24.166;2023-02-15T19:09:51;22.40;59.20
54485;DHT22;45006;56.958;24.166;2023-02-15T19:12:18;22.40;59.20
54485;DHT22;45006;56.958;24.166;2023-02-15T19:14:46;22.40;59.10
54485;DHT22;45006;56.958;24.166;2023-02-15T19:17:15;22.40;59.20
54485;DHT22;45006;56.958;24.166;2023-02-15T19:19:44;22.40;59.10
54485;DHT22;45006;56.958;24.166;2023-02-15T19:22:25;22.40;59.10
54485;DHT22;45006;56.958;24.166;2023-02-15T19:24:54;22.40;59.10